sensor_id;sensor_type;location;lat;lon;timestamp;P1;durP1;ratioP1;P2;durP2;ratioP2
66727;SDS011;53641;44.274;19.890;2023-08-31T00:00:39;2.30;;;1.10;;
66727;SDS011;53641;44.274;19.890;2023-08-31T00:03:06;2.67;;;1.02;;
66727;SDS011;53641;44.274;19.890;2023-08-31T00:05:36;1.23;;;0.90;;
66727;SDS011;53641;44.274;19.890;2023-08-31T00:08:02;4.30;;;1.27;;
66727;SDS011;53641;44.274;19.890;2023-08-31T00:10:28;2.03;;;0.90;;
66727;SDS011;53641;44.274;19.890;2023-08-31T00:12:54;3.60;;;1.30;;
66727;SDS011;53641;44.274;19.890;2023-08-31T00:15:20;1.45;;;0.90;;
66727;SDS011;53641;44.274;19.890;2023-08-31T00:17:46;1.90;;;1.15;;
66727;SDS011;53641;44.274;19.890;2023-08-31T00:20:12;2.70;;;1.15;;
66727;SDS011;53641;44.274;19.890;2023-08-31T00:22:38;1.95;;;1.08;;
66727;SDS011;53641;44.274;19.890;2023-08-31T00:25:04;2.65;;;1.20;;
66727;SDS011;53641;44.274;19.890;2023-08-31T00:27:34;2.05;;;1.10;;
66727;SDS011;53641;44.274;19.890;2023-08-31T00:30:02;1.10;;;0.90;;
66727;SDS011;53641;44.274;19.890;2023-08-31T00:32:28;2.72;;;1.40;;
66727;SDS011;53641;44.274;19.890;2023-08-31T00:34:54;1.83;;;1.27;;
66727;SDS011;53641;44.274;19.890;2023-08-31T00:37:20;1.73;;;0.95;;
66727;SDS011;53641;44.274;19.890;2023-08-31T00:39:46;3.70;;;1.10;;
66727;SDS011;53641;44.274;19.890;2023-08-31T00:42:12;2.63;;;1.17;;
66727;SDS011;53641;44.274;19.890;2023-08-31T00:44:39;4.72;;;1.05;;
66727;SDS011;53641;44.274;19.890;2023-08-31T00:47:05;2.55;;;1.23;;
66727;SDS011;53641;44.274;19.890;2023-08-31T00:49:31;3.08;;;1.35;;
66727;SDS011;53641;44.274;19.890;2023-08-31T00:51:56;2.50;;;1.05;;
66727;SDS011;53641;44.274;19.890;2023-08-31T00:54:22;1.80;;;1.15;;
66727;SDS011;53641;44.274;19.890;2023-08-31T00:56:52;2.50;;;1.20;;
66727;SDS011;53641;44.274;19.890;2023-08-31T00:59:19;2.45;;;1.40;;
66727;SDS011;53641;44.274;19.890;2023-08-31T01:01:49;1.85;;;1.30;;
66727;SDS011;53641;44.274;19.890;2023-08-31T01:04:26;1.83;;;1.23;;
66727;SDS011;53641;44.274;19.890;2023-08-31T01:07:09;2.30;;;1.35;;
66727;SDS011;53641;44.274;19.890;2023-08-31T01:10:04;4.07;;;1.55;;
66727;SDS011;53641;44.274;19.890;2023-08-31T01:12:53;2.83;;;1.63;;
66727;SDS011;53641;44.274;19.890;2023-08-31T01:15:24;2.17;;;1.40;;
66727;SDS011;53641;44.274;19.890;2023-08-31T01:17:52;2.75;;;1.42;;
66727;SDS011;53641;44.274;19.890;2023-08-31T01:20:28;2.13;;;1.20;;
66727;SDS011;53641;44.274;19.890;2023-08-31T01:23:02;4.20;;;1.35;;
66727;SDS011;53641;44.274;19.890;2023-08-31T01:25:32;4.43;;;1.50;;
66727;SDS011;53641;44.274;19.890;2023-08-31T01:28:00;3.17;;;1.77;;
66727;SDS011;53641;44.274;19.890;2023-08-31T01:30:29;2.03;;;1.23;;
66727;SDS011;53641;44.274;19.890;2023-08-31T01:32:56;2.47;;;1.70;;
66727;SDS011;53641;44.274;19.890;2023-08-31T01:35:22;2.25;;;1.45;;
66727;SDS011;53641;44.274;19.890;2023-08-31T01:37:59;6.15;;;1.63;;
66727;SDS011;53641;44.274;19.890;2023-08-31T01:40:32;2.85;;;1.50;;
66727;SDS011;53641;44.274;19.890;2023-08-31T01:43:03;4.50;;;1.70;;
66727;SDS011;53641;44.274;19.890;2023-08-31T01:45:31;2.35;;;1.90;;
66727;SDS011;53641;44.274;19.890;2023-08-31T01:48:02;3.45;;;1.67;;
66727;SDS011;53641;44.274;19.890;2023-08-31T01:50:35;2.92;;;1.60;;
66727;SDS011;53641;44.274;19.890;2023-08-31T01:53:01;2.25;;;1.40;;
66727;SDS011;53641;44.274;19.890;2023-08-31T01:55:29;2.35;;;1.55;;
66727;SDS011;53641;44.274;19.890;2023-08-31T01:57:55;3.80;;;1.73;;
66727;SDS011;53641;44.274;19.890;2023-08-31T02:00:21;3.17;;;1.67;;
66727;SDS011;53641;44.274;19.890;2023-08-31T02:02:50;2.75;;;1.60;;
66727;SDS011;53641;44.274;19.890;2023-08-31T02:05:19;3.60;;;1.92;;
66727;SDS011;53641;44.274;19.890;2023-08-31T02:07:45;3.85;;;1.52;;
66727;SDS011;53641;44.274;19.890;2023-08-31T02:10:11;2.85;;;1.77;;
66727;SDS011;53641;44.274;19.890;2023-08-31T02:12:37;3.10;;;1.95;;
66727;SDS011;53641;44.274;19.890;2023-08-31T02:15:04;4.20;;;2.13;;
66727;SDS011;53641;44.274;19.890;2023-08-31T02:17:30;3.42;;;2.15;;
66727;SDS011;53641;44.274;19.890;2023-08-31T02:19:56;3.35;;;1.73;;
66727;SDS011;53641;44.274;19.890;2023-08-31T02:22:23;5.15;;;1.42;;
66727;SDS011;53641;44.274;19.890;2023-08-31T02:24:48;3.63;;;1.70;;
66727;SDS011;53641;44.274;19.890;2023-08-31T02:27:14;2.95;;;1.55;;
66727;SDS011;53641;44.274;19.890;2023-08-31T02:29:40;4.38;;;2.03;;
66727;SDS011;53641;44.274;19.890;2023-08-31T02:32:06;3.47;;;1.38;;
66727;SDS011;53641;44.274;19.890;2023-08-31T02:34:32;2.70;;;1.77;;
66727;SDS011;53641;44.274;19.890;2023-08-31T02:36:58;2.40;;;1.50;;
66727;SDS011;53641;44.274;19.890;2023-08-31T02:39:24;4.35;;;1.73;;
66727;SDS011;53641;44.274;19.890;2023-08-31T02:41:50;3.65;;;1.73;;
66727;SDS011;53641;44.274;19.890;2023-08-31T02:44:19;2.22;;;1.40;;
66727;SDS011;53641;44.274;19.890;2023-08-31T02:46:46;3.90;;;1.80;;
66727;SDS011;53641;44.274;19.890;2023-08-31T02:49:11;4.82;;;1.67;;
66727;SDS011;53641;44.274;19.890;2023-08-31T02:51:37;3.65;;;1.30;;
66727;SDS011;53641;44.274;19.890;2023-08-31T02:54:03;3.90;;;1.88;;
66727;SDS011;53641;44.274;19.890;2023-08-31T02:56:29;2.67;;;1.48;;
66727;SDS011;53641;44.274;19.890;2023-08-31T02:58:55;3.53;;;1.52;;
66727;SDS011;53641;44.274;19.890;2023-08-31T03:01:21;2.47;;;1.33;;
66727;SDS011;53641;44.274;19.890;2023-08-31T03:03:48;3.00;;;1.80;;
66727;SDS011;53641;44.274;19.890;2023-08-31T03:06:14;3.38;;;1.73;;
66727;SDS011;53641;44.274;19.890;2023-08-31T03:08:40;3.80;;;1.50;;
66727;SDS011;53641;44.274;19.890;2023-08-31T03:11:06;3.22;;;1.60;;
66727;SDS011;53641;44.274;19.890;2023-08-31T03:13:35;2.72;;;1.30;;
66727;SDS011;53641;44.274;19.890;2023-08-31T03:16:01;2.40;;;1.55;;
66727;SDS011;53641;44.274;19.890;2023-08-31T03:18:28;2.85;;;1.52;;
66727;SDS011;53641;44.274;19.890;2023-08-31T03:20:54;2.88;;;1.67;;
66727;SDS011;53641;44.274;19.890;2023-08-31T03:23:21;2.38;;;1.75;;
66727;SDS011;53641;44.274;19.890;2023-08-31T03:25:47;5.25;;;1.48;;
66727;SDS011;53641;44.274;19.890;2023-08-31T03:28:13;2.58;;;1.40;;
66727;SDS011;53641;44.274;19.890;2023-08-31T03:30:39;6.00;;;1.60;;
66727;SDS011;53641;44.274;19.890;2023-08-31T03:33:04;2.47;;;1.48;;
66727;SDS011;53641;44.274;19.890;2023-08-31T03:35:33;3.00;;;1.52;;
66727;SDS011;53641;44.274;19.890;2023-08-31T03:37:59;3.78;;;1.70;;
66727;SDS011;53641;44.274;19.890;2023-08-31T03:40:28;4.03;;;1.65;;
66727;SDS011;53641;44.274;19.890;2023-08-31T03:42:54;2.95;;;1.70;;
66727;SDS011;53641;44.274;19.890;2023-08-31T03:45:20;2.60;;;1.85;;
66727;SDS011;53641;44.274;19.890;2023-08-31T03:47:45;2.58;;;1.73;;
66727;SDS011;53641;44.274;19.890;2023-08-31T03:50:11;6.03;;;2.25;;
66727;SDS011;53641;44.274;19.890;2023-08-31T03:52:40;7.28;;;1.80;;
66727;SDS011;53641;44.274;19.890;2023-08-31T03:55:06;3.33;;;1.85;;
66727;SDS011;53641;44.274;19.890;2023-08-31T03:57:32;1.85;;;1.38;;
66727;SDS011;53641;44.274;19.890;2023-08-31T03:59:58;3.28;;;1.35;;
66727;SDS011;53641;44.274;19.890;2023-08-31T04:02:24;1.75;;;1.10;;
66727;SDS011;53641;44.274;19.890;2023-08-31T04:04:50;3.33;;;1.17;;
66727;SDS011;53641;44.274;19.890;2023-08-31T04:07:15;2.60;;;1.65;;
66727;SDS011;53641;44.274;19.890;2023-08-31T04:09:41;4.32;;;1.45;;
66727;SDS011;53641;44.274;19.890;2023-08-31T04:12:07;1.52;;;1.00;;
66727;SDS011;53641;44.274;19.890;2023-08-31T04:14:33;2.75;;;1.60;;
66727;SDS011;53641;44.274;19.890;2023-08-31T04:16:59;2.55;;;1.40;;
66727;SDS011;53641;44.274;19.890;2023-08-31T04:19:25;3.53;;;1.55;;
66727;SDS011;53641;44.274;19.890;2023-08-31T04:21:53;4.45;;;1.83;;
66727;SDS011;53641;44.274;19.890;2023-08-31T04:24:20;2.45;;;1.70;;
66727;SDS011;53641;44.274;19.890;2023-08-31T04:26:46;3.55;;;1.75;;
66727;SDS011;53641;44.274;19.890;2023-08-31T04:29:14;6.70;;;1.60;;
66727;SDS011;53641;44.274;19.890;2023-08-31T04:31:43;3.85;;;1.80;;
66727;SDS011;53641;44.274;19.890;2023-08-31T04:34:11;2.78;;;1.50;;
66727;SDS011;53641;44.274;19.890;2023-08-31T04:36:37;1.80;;;1.30;;
66727;SDS011;53641;44.274;19.890;2023-08-31T04:39:03;2.05;;;1.25;;
66727;SDS011;53641;44.274;19.890;2023-08-31T04:41:30;2.28;;;1.40;;
66727;SDS011;53641;44.274;19.890;2023-08-31T04:43:55;2.35;;;1.42;;
66727;SDS011;53641;44.274;19.890;2023-08-31T04:46:21;4.47;;;1.35;;
66727;SDS011;53641;44.274;19.890;2023-08-31T04:48:47;6.70;;;1.98;;
66727;SDS011;53641;44.274;19.890;2023-08-31T04:51:35;4.95;;;2.42;;
66727;SDS011;53641;44.274;19.890;2023-08-31T04:54:00;4.40;;;1.85;;
66727;SDS011;53641;44.274;19.890;2023-08-31T04:56:29;2.83;;;1.80;;
66727;SDS011;53641;44.274;19.890;2023-08-31T04:58:59;3.22;;;1.83;;
66727;SDS011;53641;44.274;19.890;2023-08-31T05:01:26;2.85;;;1.45;;
66727;SDS011;53641;44.274;19.890;2023-08-31T05:03:52;2.83;;;1.60;;
66727;SDS011;53641;44.274;19.890;2023-08-31T05:06:18;3.42;;;1.65;;
66727;SDS011;53641;44.274;19.890;2023-08-31T05:08:44;3.00;;;1.45;;
66727;SDS011;53641;44.274;19.890;2023-08-31T05:11:09;4.53;;;1.80;;
66727;SDS011;53641;44.274;19.890;2023-08-31T05:13:35;4.03;;;1.30;;
66727;SDS011;53641;44.274;19.890;2023-08-31T05:16:02;2.00;;;1.30;;
66727;SDS011;53641;44.274;19.890;2023-08-31T05:18:28;3.80;;;1.58;;
66727;SDS011;53641;44.274;19.890;2023-08-31T05:20:54;4.45;;;1.40;;
66727;SDS011;53641;44.274;19.890;2023-08-31T05:23:20;2.85;;;1.30;;
66727;SDS011;53641;44.274;19.890;2023-08-31T05:25:46;2.40;;;1.52;;
66727;SDS011;53641;44.274;19.890;2023-08-31T05:28:12;2.88;;;1.55;;
66727;SDS011;53641;44.274;19.890;2023-08-31T05:30:47;3.33;;;1.27;;
66727;SDS011;53641;44.274;19.890;2023-08-31T05:33:17;1.95;;;1.30;;
66727;SDS011;53641;44.274;19.890;2023-08-31T05:35:42;4.80;;;1.45;;
66727;SDS011;53641;44.274;19.890;2023-08-31T05:38:08;3.95;;;1.25;;
66727;SDS011;53641;44.274;19.890;2023-08-31T05:40:34;4.30;;;1.50;;
66727;SDS011;53641;44.274;19.890;2023-08-31T05:43:00;4.00;;;1.45;;
66727;SDS011;53641;44.274;19.890;2023-08-31T05:45:27;4.97;;;1.58;;
66727;SDS011;53641;44.274;19.890;2023-08-31T05:47:56;2.00;;;1.08;;
66727;SDS011;53641;44.274;19.890;2023-08-31T05:50:22;2.53;;;1.55;;
66727;SDS011;53641;44.274;19.890;2023-08-31T05:52:47;3.40;;;1.40;;
66727;SDS011;53641;44.274;19.890;2023-08-31T05:55:13;3.03;;;1.38;;
66727;SDS011;53641;44.274;19.890;2023-08-31T05:57:42;7.05;;;1.33;;
66727;SDS011;53641;44.274;19.890;2023-08-31T06:00:08;2.53;;;1.23;;
66727;SDS011;53641;44.274;19.890;2023-08-31T06:02:34;4.40;;;1.60;;
66727;SDS011;53641;44.274;19.890;2023-08-31T06:05:01;3.42;;;1.67;;
66727;SDS011;53641;44.274;19.890;2023-08-31T06:07:28;4.97;;;1.80;;
66727;SDS011;53641;44.274;19.890;2023-08-31T06:09:54;3.67;;;1.60;;
66727;SDS011;53641;44.274;19.890;2023-08-31T06:12:22;5.32;;;2.03;;
66727;SDS011;53641;44.274;19.890;2023-08-31T06:14:48;4.45;;;2.17;;
66727;SDS011;53641;44.274;19.890;2023-08-31T06:17:14;4.05;;;1.90;;
66727;SDS011;53641;44.274;19.890;2023-08-31T06:19:40;4.63;;;2.47;;
66727;SDS011;53641;44.274;19.890;2023-08-31T06:22:06;5.25;;;2.78;;
66727;SDS011;53641;44.274;19.890;2023-08-31T06:24:35;3.03;;;2.15;;
66727;SDS011;53641;44.274;19.890;2023-08-31T06:27:02;4.45;;;2.33;;
66727;SDS011;53641;44.274;19.890;2023-08-31T06:29:27;4.82;;;2.40;;
66727;SDS011;53641;44.274;19.890;2023-08-31T06:31:53;2.85;;;1.77;;
66727;SDS011;53641;44.274;19.890;2023-08-31T06:34:19;2.38;;;1.40;;
66727;SDS011;53641;44.274;19.890;2023-08-31T06:36:45;2.67;;;1.40;;
66727;SDS011;53641;44.274;19.890;2023-08-31T06:39:11;5.50;;;1.75;;
66727;SDS011;53641;44.274;19.890;2023-08-31T06:41:37;3.13;;;1.52;;
66727;SDS011;53641;44.274;19.890;2023-08-31T06:44:03;3.78;;;1.38;;
66727;SDS011;53641;44.274;19.890;2023-08-31T06:46:30;4.72;;;1.50;;
66727;SDS011;53641;44.274;19.890;2023-08-31T06:49:02;7.88;;;1.70;;
66727;SDS011;53641;44.274;19.890;2023-08-31T06:51:32;3.58;;;1.80;;
66727;SDS011;53641;44.274;19.890;2023-08-31T06:53:58;3.13;;;1.30;;
66727;SDS011;53641;44.274;19.890;2023-08-31T06:56:31;3.45;;;1.42;;
66727;SDS011;53641;44.274;19.890;2023-08-31T06:58:56;3.05;;;1.45;;
66727;SDS011;53641;44.274;19.890;2023-08-31T07:01:22;4.20;;;1.60;;
66727;SDS011;53641;44.274;19.890;2023-08-31T07:03:48;3.38;;;1.73;;
66727;SDS011;53641;44.274;19.890;2023-08-31T07:06:14;3.65;;;1.77;;
66727;SDS011;53641;44.274;19.890;2023-08-31T07:08:40;1.70;;;1.20;;
66727;SDS011;53641;44.274;19.890;2023-08-31T07:11:07;2.88;;;1.70;;
66727;SDS011;53641;44.274;19.890;2023-08-31T07:13:33;2.22;;;1.38;;
66727;SDS011;53641;44.274;19.890;2023-08-31T07:15:58;4.28;;;1.70;;
66727;SDS011;53641;44.274;19.890;2023-08-31T07:18:24;3.17;;;1.38;;
66727;SDS011;53641;44.274;19.890;2023-08-31T07:20:53;4.18;;;1.70;;
66727;SDS011;53641;44.274;19.890;2023-08-31T07:23:19;2.38;;;1.23;;
66727;SDS011;53641;44.274;19.890;2023-08-31T07:25:45;3.35;;;1.35;;
66727;SDS011;53641;44.274;19.890;2023-08-31T07:28:12;4.35;;;1.48;;
66727;SDS011;53641;44.274;19.890;2023-08-31T07:30:38;2.47;;;1.40;;
66727;SDS011;53641;44.274;19.890;2023-08-31T07:33:04;3.17;;;1.65;;
66727;SDS011;53641;44.274;19.890;2023-08-31T07:35:30;6.57;;;1.60;;
66727;SDS011;53641;44.274;19.890;2023-08-31T07:37:56;4.60;;;1.75;;
66727;SDS011;53641;44.274;19.890;2023-08-31T07:40:22;5.75;;;1.30;;
66727;SDS011;53641;44.274;19.890;2023-08-31T07:42:48;4.50;;;1.40;;
66727;SDS011;53641;44.274;19.890;2023-08-31T07:45:15;2.25;;;1.10;;
66727;SDS011;53641;44.274;19.890;2023-08-31T07:47:41;3.55;;;1.40;;
66727;SDS011;53641;44.274;19.890;2023-08-31T07:50:07;2.38;;;1.20;;
66727;SDS011;53641;44.274;19.890;2023-08-31T07:52:33;5.38;;;1.27;;
66727;SDS011;53641;44.274;19.890;2023-08-31T07:54:59;5.65;;;1.10;;
66727;SDS011;53641;44.274;19.890;2023-08-31T07:57:26;3.70;;;0.77;;
66727;SDS011;53641;44.274;19.890;2023-08-31T07:59:52;1.50;;;0.90;;
66727;SDS011;53641;44.274;19.890;2023-08-31T08:02:18;3.22;;;1.10;;
66727;SDS011;53641;44.274;19.890;2023-08-31T08:04:47;6.53;;;1.33;;
66727;SDS011;53641;44.274;19.890;2023-08-31T08:07:13;3.20;;;1.02;;
66727;SDS011;53641;44.274;19.890;2023-08-31T08:09:39;4.43;;;1.20;;
66727;SDS011;53641;44.274;19.890;2023-08-31T08:12:05;3.53;;;1.27;;
66727;SDS011;53641;44.274;19.890;2023-08-31T08:14:31;3.10;;;1.30;;
66727;SDS011;53641;44.274;19.890;2023-08-31T08:16:57;2.15;;;1.15;;
66727;SDS011;53641;44.274;19.890;2023-08-31T08:19:23;5.75;;;1.00;;
66727;SDS011;53641;44.274;19.890;2023-08-31T08:21:50;2.70;;;1.13;;
66727;SDS011;53641;44.274;19.890;2023-08-31T08:24:16;2.25;;;1.10;;
66727;SDS011;53641;44.274;19.890;2023-08-31T08:26:42;2.00;;;1.00;;
66727;SDS011;53641;44.274;19.890;2023-08-31T08:29:08;2.03;;;1.02;;
66727;SDS011;53641;44.274;19.890;2023-08-31T08:31:34;2.10;;;1.08;;
66727;SDS011;53641;44.274;19.890;2023-08-31T08:34:00;4.55;;;1.10;;
66727;SDS011;53641;44.274;19.890;2023-08-31T08:36:26;1.90;;;1.00;;
66727;SDS011;53641;44.274;19.890;2023-08-31T08:38:52;3.03;;;0.93;;
66727;SDS011;53641;44.274;19.890;2023-08-31T08:41:19;4.18;;;1.23;;
66727;SDS011;53641;44.274;19.890;2023-08-31T08:43:48;3.35;;;1.20;;
66727;SDS011;53641;44.274;19.890;2023-08-31T08:46:16;2.45;;;1.20;;
66727;SDS011;53641;44.274;19.890;2023-08-31T08:48:46;2.40;;;1.13;;
66727;SDS011;53641;44.274;19.890;2023-08-31T08:51:13;2.95;;;1.08;;
66727;SDS011;53641;44.274;19.890;2023-08-31T08:53:40;2.53;;;1.10;;
66727;SDS011;53641;44.274;19.890;2023-08-31T08:56:09;3.97;;;1.52;;
66727;SDS011;53641;44.274;19.890;2023-08-31T08:58:35;2.72;;;1.10;;
66727;SDS011;53641;44.274;19.890;2023-08-31T09:01:00;5.28;;;1.00;;
66727;SDS011;53641;44.274;19.890;2023-08-31T09:03:29;1.70;;;0.90;;
66727;SDS011;53641;44.274;19.890;2023-08-31T09:05:54;2.10;;;1.10;;
66727;SDS011;53641;44.274;19.890;2023-08-31T09:08:27;1.48;;;1.00;;
66727;SDS011;53641;44.274;19.890;2023-08-31T09:10:55;1.55;;;0.90;;
66727;SDS011;53641;44.274;19.890;2023-08-31T09:13:28;2.13;;;0.90;;
66727;SDS011;53641;44.274;19.890;2023-08-31T09:15:55;5.57;;;1.58;;
66727;SDS011;53641;44.274;19.890;2023-08-31T09:18:28;2.75;;;1.00;;
66727;SDS011;53641;44.274;19.890;2023-08-31T09:20:58;1.92;;;1.23;;
66727;SDS011;53641;44.274;19.890;2023-08-31T09:23:26;1.90;;;1.10;;
66727;SDS011;53641;44.274;19.890;2023-08-31T09:25:53;2.20;;;0.90;;
66727;SDS011;53641;44.274;19.890;2023-08-31T09:28:20;3.47;;;1.23;;
66727;SDS011;53641;44.274;19.890;2023-08-31T09:30:48;3.08;;;1.13;;
66727;SDS011;53641;44.274;19.890;2023-08-31T09:33:15;1.98;;;1.00;;
66727;SDS011;53641;44.274;19.890;2023-08-31T09:35:50;1.95;;;0.98;;
66727;SDS011;53641;44.274;19.890;2023-08-31T09:38:17;2.15;;;1.33;;
66727;SDS011;53641;44.274;19.890;2023-08-31T09:40:44;1.92;;;0.95;;
66727;SDS011;53641;44.274;19.890;2023-08-31T09:43:10;1.95;;;1.08;;
66727;SDS011;53641;44.274;19.890;2023-08-31T09:45:36;2.08;;;1.17;;
66727;SDS011;53641;44.274;19.890;2023-08-31T09:48:03;1.65;;;0.77;;
66727;SDS011;53641;44.274;19.890;2023-08-31T09:50:31;1.63;;;0.98;;
66727;SDS011;53641;44.274;19.890;2023-08-31T09:53:02;2.88;;;0.90;;
66727;SDS011;53641;44.274;19.890;2023-08-31T09:55:29;8.27;;;1.40;;
66727;SDS011;53641;44.274;19.890;2023-08-31T09:57:56;3.05;;;1.17;;
66727;SDS011;53641;44.274;19.890;2023-08-31T10:00:26;1.40;;;0.70;;
66727;SDS011;53641;44.274;19.890;2023-08-31T10:02:58;3.33;;;1.30;;
66727;SDS011;53641;44.274;19.890;2023-08-31T10:05:27;2.72;;;1.20;;
66727;SDS011;53641;44.274;19.890;2023-08-31T10:07:53;1.95;;;1.30;;
66727;SDS011;53641;44.274;19.890;2023-08-31T10:10:19;2.17;;;1.35;;
66727;SDS011;53641;44.274;19.890;2023-08-31T10:12:49;3.97;;;1.30;;
66727;SDS011;53641;44.274;19.890;2023-08-31T10:15:17;1.75;;;0.93;;
66727;SDS011;53641;44.274;19.890;2023-08-31T10:17:44;1.92;;;1.10;;
66727;SDS011;53641;44.274;19.890;2023-08-31T10:20:10;2.25;;;1.20;;
66727;SDS011;53641;44.274;19.890;2023-08-31T10:22:37;3.40;;;1.17;;
66727;SDS011;53641;44.274;19.890;2023-08-31T10:25:04;2.13;;;0.90;;
66727;SDS011;53641;44.274;19.890;2023-08-31T10:27:41;2.70;;;1.10;;
66727;SDS011;53641;44.274;19.890;2023-08-31T10:30:24;2.25;;;0.80;;
66727;SDS011;53641;44.274;19.890;2023-08-31T10:33:25;2.67;;;1.30;;
66727;SDS011;53641;44.274;19.890;2023-08-31T10:35:52;1.80;;;1.08;;
66727;SDS011;53641;44.274;19.890;2023-08-31T10:38:29;5.50;;;1.85;;
66727;SDS011;53641;44.274;19.890;2023-08-31T10:41:19;2.30;;;1.00;;
66727;SDS011;53641;44.274;19.890;2023-08-31T10:48:50;2.63;;;0.70;;
66727;SDS011;53641;44.274;19.890;2023-08-31T10:51:16;1.63;;;1.00;;
66727;SDS011;53641;44.274;19.890;2023-08-31T10:53:45;3.22;;;1.20;;
66727;SDS011;53641;44.274;19.890;2023-08-31T10:56:15;4.53;;;1.10;;
66727;SDS011;53641;44.274;19.890;2023-08-31T10:58:40;2.78;;;1.25;;
66727;SDS011;53641;44.274;19.890;2023-08-31T11:01:06;1.38;;;1.10;;
66727;SDS011;53641;44.274;19.890;2023-08-31T11:03:32;3.95;;;1.45;;
66727;SDS011;53641;44.274;19.890;2023-08-31T11:06:18;3.88;;;1.45;;
66727;SDS011;53641;44.274;19.890;2023-08-31T11:08:44;3.55;;;1.15;;
66727;SDS011;53641;44.274;19.890;2023-08-31T11:11:10;4.68;;;1.08;;
66727;SDS011;53641;44.274;19.890;2023-08-31T11:13:36;3.28;;;1.30;;
66727;SDS011;53641;44.274;19.890;2023-08-31T11:16:03;4.43;;;1.40;;
66727;SDS011;53641;44.274;19.890;2023-08-31T11:18:29;2.97;;;1.10;;
66727;SDS011;53641;44.274;19.890;2023-08-31T11:20:55;3.88;;;0.90;;
66727;SDS011;53641;44.274;19.890;2023-08-31T11:23:22;2.38;;;0.95;;
66727;SDS011;53641;44.274;19.890;2023-08-31T11:25:49;2.47;;;1.10;;
66727;SDS011;53641;44.274;19.890;2023-08-31T11:28:15;2.92;;;1.00;;
66727;SDS011;53641;44.274;19.890;2023-08-31T11:30:41;1.45;;;0.90;;
66727;SDS011;53641;44.274;19.890;2023-08-31T11:33:09;1.92;;;0.80;;
66727;SDS011;53641;44.274;19.890;2023-08-31T11:35:37;3.03;;;1.15;;
66727;SDS011;53641;44.274;19.890;2023-08-31T11:38:08;3.40;;;1.00;;
66727;SDS011;53641;44.274;19.890;2023-08-31T11:40:35;2.40;;;1.10;;
66727;SDS011;53641;44.274;19.890;2023-08-31T11:43:01;5.53;;;1.10;;
66727;SDS011;53641;44.274;19.890;2023-08-31T11:45:29;4.20;;;1.00;;
66727;SDS011;53641;44.274;19.890;2023-08-31T11:47:55;2.38;;;1.35;;
66727;SDS011;53641;44.274;19.890;2023-08-31T11:50:23;4.75;;;1.30;;
66727;SDS011;53641;44.274;19.890;2023-08-31T11:52:50;2.55;;;1.17;;
66727;SDS011;53641;44.274;19.890;2023-08-31T11:55:18;1.98;;;0.95;;
66727;SDS011;53641;44.274;19.890;2023-08-31T11:57:49;2.05;;;0.90;;
66727;SDS011;53641;44.274;19.890;2023-08-31T12:00:19;3.20;;;1.30;;
66727;SDS011;53641;44.274;19.890;2023-08-31T12:03:01;2.03;;;1.10;;
66727;SDS011;53641;44.274;19.890;2023-08-31T12:05:29;3.50;;;1.00;;
66727;SDS011;53641;44.274;19.890;2023-08-31T12:08:10;3.70;;;0.88;;
66727;SDS011;53641;44.274;19.890;2023-08-31T12:10:39;1.88;;;1.25;;
66727;SDS011;53641;44.274;19.890;2023-08-31T12:13:09;2.50;;;1.47;;
66727;SDS011;53641;44.274;19.890;2023-08-31T12:15:36;2.05;;;0.90;;
66727;SDS011;53641;44.274;19.890;2023-08-31T12:18:09;2.50;;;1.15;;
66727;SDS011;53641;44.274;19.890;2023-08-31T12:20:43;1.85;;;1.23;;
66727;SDS011;53641;44.274;19.890;2023-08-31T12:23:09;2.20;;;1.10;;
66727;SDS011;53641;44.274;19.890;2023-08-31T12:25:35;1.48;;;1.00;;
66727;SDS011;53641;44.274;19.890;2023-08-31T12:28:01;2.33;;;1.08;;
66727;SDS011;53641;44.274;19.890;2023-08-31T12:30:28;1.52;;;0.88;;
66727;SDS011;53641;44.274;19.890;2023-08-31T12:32:54;1.40;;;1.02;;
66727;SDS011;53641;44.274;19.890;2023-08-31T12:35:20;1.38;;;0.98;;
66727;SDS011;53641;44.274;19.890;2023-08-31T12:37:46;2.53;;;0.90;;
66727;SDS011;53641;44.274;19.890;2023-08-31T12:40:12;2.25;;;0.98;;
66727;SDS011;53641;44.274;19.890;2023-08-31T12:42:38;3.28;;;1.60;;
66727;SDS011;53641;44.274;19.890;2023-08-31T12:45:04;3.50;;;1.20;;
66727;SDS011;53641;44.274;19.890;2023-08-31T12:47:31;2.05;;;1.45;;
66727;SDS011;53641;44.274;19.890;2023-08-31T12:49:57;3.00;;;1.38;;
66727;SDS011;53641;44.274;19.890;2023-08-31T12:52:22;3.70;;;1.50;;
66727;SDS011;53641;44.274;19.890;2023-08-31T12:54:49;5.18;;;2.55;;
66727;SDS011;53641;44.274;19.890;2023-08-31T12:57:14;6.15;;;3.22;;
66727;SDS011;53641;44.274;19.890;2023-08-31T12:59:40;7.28;;;1.88;;
66727;SDS011;53641;44.274;19.890;2023-08-31T13:02:07;7.50;;;1.92;;
66727;SDS011;53641;44.274;19.890;2023-08-31T13:04:35;11.35;;;2.55;;
66727;SDS011;53641;44.274;19.890;2023-08-31T13:07:01;7.43;;;2.33;;
66727;SDS011;53641;44.274;19.890;2023-08-31T13:09:28;6.07;;;2.58;;
66727;SDS011;53641;44.274;19.890;2023-08-31T13:11:54;6.63;;;2.25;;
66727;SDS011;53641;44.274;19.890;2023-08-31T13:14:22;4.20;;;1.83;;
66727;SDS011;53641;44.274;19.890;2023-08-31T13:16:48;3.58;;;1.80;;
66727;SDS011;53641;44.274;19.890;2023-08-31T13:19:14;3.40;;;1.75;;
66727;SDS011;53641;44.274;19.890;2023-08-31T13:21:40;1.42;;;1.20;;
66727;SDS011;53641;44.274;19.890;2023-08-31T13:24:06;2.90;;;1.45;;
66727;SDS011;53641;44.274;19.890;2023-08-31T13:26:32;5.15;;;1.77;;
66727;SDS011;53641;44.274;19.890;2023-08-31T13:28:57;5.00;;;1.60;;
66727;SDS011;53641;44.274;19.890;2023-08-31T13:31:23;2.67;;;1.35;;
66727;SDS011;53641;44.274;19.890;2023-08-31T13:33:49;3.90;;;1.50;;
66727;SDS011;53641;44.274;19.890;2023-08-31T13:36:15;4.93;;;1.50;;
66727;SDS011;53641;44.274;19.890;2023-08-31T13:38:41;3.05;;;1.65;;
66727;SDS011;53641;44.274;19.890;2023-08-31T13:41:06;2.92;;;1.45;;
66727;SDS011;53641;44.274;19.890;2023-08-31T13:43:33;4.22;;;2.05;;
66727;SDS011;53641;44.274;19.890;2023-08-31T13:45:59;2.60;;;1.42;;
66727;SDS011;53641;44.274;19.890;2023-08-31T13:48:25;5.40;;;1.52;;
66727;SDS011;53641;44.274;19.890;2023-08-31T13:50:50;1.40;;;0.90;;
66727;SDS011;53641;44.274;19.890;2023-08-31T13:53:16;4.10;;;1.00;;
66727;SDS011;53641;44.274;19.890;2023-08-31T13:55:42;1.48;;;0.80;;
66727;SDS011;53641;44.274;19.890;2023-08-31T13:58:08;1.23;;;0.80;;
66727;SDS011;53641;44.274;19.890;2023-08-31T14:00:35;1.40;;;0.60;;
66727;SDS011;53641;44.274;19.890;2023-08-31T14:03:01;1.42;;;0.85;;
66727;SDS011;53641;44.274;19.890;2023-08-31T14:05:30;0.98;;;0.65;;
66727;SDS011;53641;44.274;19.890;2023-08-31T14:07:57;1.65;;;0.85;;
66727;SDS011;53641;44.274;19.890;2023-08-31T14:10:26;1.20;;;0.70;;
66727;SDS011;53641;44.274;19.890;2023-08-31T14:12:52;1.20;;;0.80;;
66727;SDS011;53641;44.274;19.890;2023-08-31T14:15:18;0.70;;;0.70;;
66727;SDS011;53641;44.274;19.890;2023-08-31T14:17:44;1.90;;;0.77;;
66727;SDS011;53641;44.274;19.890;2023-08-31T14:20:10;1.42;;;0.80;;
66727;SDS011;53641;44.274;19.890;2023-08-31T14:22:36;1.25;;;0.80;;
66727;SDS011;53641;44.274;19.890;2023-08-31T14:25:08;1.70;;;0.77;;
66727;SDS011;53641;44.274;19.890;2023-08-31T14:27:33;1.45;;;0.80;;
66727;SDS011;53641;44.274;19.890;2023-08-31T14:29:59;4.50;;;1.00;;
66727;SDS011;53641;44.274;19.890;2023-08-31T14:32:25;2.38;;;0.90;;
66727;SDS011;53641;44.274;19.890;2023-08-31T14:34:51;2.85;;;1.10;;
66727;SDS011;53641;44.274;19.890;2023-08-31T14:37:19;2.50;;;0.90;;
66727;SDS011;53641;44.274;19.890;2023-08-31T14:39:45;1.58;;;0.88;;